sensor_id;sensor_type;location;lat;lon;timestamp;pressure;altitude;pressure_sealevel;temperature;humidity
7018;BME280;3549;42.162;24.726;2023-05-22T00:01:42;47866.97;;;-141.97;83.64
7018;BME280;3549;42.162;24.726;2023-05-22T00:04:07;47799.72;;;-141.97;83.59
7018;BME280;3549;42.162;24.726;2023-05-22T00:06:33;47692.06;;;-141.97;83.80
7018;BME280;3549;42.162;24.726;2023-05-22T00:08:58;47672.84;;;-141.97;83.79
7018;BME280;3549;42.162;24.726;2023-05-22T00:11:24;47676.69;;;-141.97;83.74
7018;BME280;3549;42.162;24.726;2023-05-22T00:13:50;47653.63;;;-141.97;83.58
7018;BME280;3549;42.162;24.726;2023-05-22T00:16:16;47724.75;;;-141.97;83.31
7018;BME280;3549;42.162;24.726;2023-05-22T00:18:41;47680.53;;;-141.97;82.67
7018;BME280;3549;42.162;24.726;2023-05-22T00:21:08;47667.06;;;-141.97;82.25
7018;BME280;3549;42.162;24.726;2023-05-22T00:23:33;47692.06;;;-141.97;82.76
7018;BME280;3549;42.162;24.726;2023-05-22T00:25:59;47684.38;;;-141.97;82.93
7018;BME280;3549;42.162;24.726;2023-05-22T00:28:25;47707.44;;;-141.97;83.70
7018;BME280;3549;42.162;24.726;2023-05-22T00:30:51;47670.91;;;-141.97;83.71
7018;BME280;3549;42.162;24.726;2023-05-22T00:33:16;47761.25;;;-141.97;84.12
7018;BME280;3549;42.162;24.726;2023-05-22T00:35:41;47843.91;;;-141.97;84.33
7018;BME280;3549;42.162;24.726;2023-05-22T00:38:07;47592.13;;;-141.97;84.39
7018;BME280;3549;42.162;24.726;2023-05-22T00:40:32;47715.13;;;-141.97;84.58
7018;BME280;3549;42.162;24.726;2023-05-22T00:42:58;47680.53;;;-141.97;84.88
7018;BME280;3549;42.162;24.726;2023-05-22T00:45:23;47703.59;;;-141.97;84.75
7018;BME280;3549;42.162;24.726;2023-05-22T00:47:49;47672.84;;;-141.97;84.47
7018;BME280;3549;42.162;24.726;2023-05-22T00:50:17;47707.44;;;-141.97;84.26
7018;BME280;3549;42.162;24.726;2023-05-22T00:52:45;47638.25;;;-141.97;84.37
7018;BME280;3549;42.162;24.726;2023-05-22T00:55:11;47695.91;;;-141.97;83.69
7018;BME280;3549;42.162;24.726;2023-05-22T00:57:37;47699.75;;;-141.97;83.14
7018;BME280;3549;42.162;24.726;2023-05-22T01:00:08;47670.91;;;-141.97;82.96
7018;BME280;3549;42.162;24.726;2023-05-22T01:02:35;47872.75;;;-141.97;81.98
7018;BME280;3549;42.162;24.726;2023-05-22T01:05:03;47657.47;;;-141.97;82.10
7018;BME280;3549;42.162;24.726;2023-05-22T01:07:30;47682.47;;;-141.97;81.73
7018;BME280;3549;42.162;24.726;2023-05-22T01:09:56;47722.81;;;-141.97;81.05
7018;BME280;3549;42.162;24.726;2023-05-22T01:13:01;47707.44;;;-141.97;80.91
7018;BME280;3549;42.162;24.726;2023-05-22T01:15:43;47694.00;;;-141.97;81.75
7018;BME280;3549;42.162;24.726;2023-05-22T01:18:19;47661.31;;;-141.97;81.23
7018;BME280;3549;42.162;24.726;2023-05-22T01:29:40;47718.97;;;-141.97;81.80
7018;BME280;3549;42.162;24.726;2023-05-22T01:32:08;47645.94;;;-141.97;81.95
7018;BME280;3549;42.162;24.726;2023-05-22T01:34:36;47832.38;;;-141.97;80.85
7018;BME280;3549;42.162;24.726;2023-05-22T01:37:03;47695.91;;;-141.97;80.91
7018;BME280;3549;42.162;24.726;2023-05-22T01:39:29;47661.31;;;-141.97;80.64
7018;BME280;3549;42.162;24.726;2023-05-22T01:41:55;47686.31;;;-141.97;81.29
7018;BME280;3549;42.162;24.726;2023-05-22T01:44:21;47692.06;;;-141.97;81.78
7018;BME280;3549;42.162;24.726;2023-05-22T01:46:47;47711.28;;;-141.97;81.78
7018;BME280;3549;42.162;24.726;2023-05-22T01:49:13;47688.22;;;-141.97;81.25
7018;BME280;3549;42.162;24.726;2023-05-22T01:57:20;47663.22;;;-141.97;82.09
7018;BME280;3549;42.162;24.726;2023-05-22T02:02:23;47718.97;;;-141.97;82.29
7018;BME280;3549;42.162;24.726;2023-05-22T02:04:57;47707.44;;;-141.97;82.44
7018;BME280;3549;42.162;24.726;2023-05-22T02:07:24;47592.13;;;-141.97;82.49
7018;BME280;3549;42.162;24.726;2023-05-22T02:09:51;47718.97;;;-141.97;82.21
7018;BME280;3549;42.162;24.726;2023-05-22T02:12:19;47642.09;;;-141.97;82.60
7018;BME280;3549;42.162;24.726;2023-05-22T02:14:45;47767.03;;;-141.97;82.83
7018;BME280;3549;42.162;24.726;2023-05-22T02:17:10;47686.31;;;-141.97;81.88
7018;BME280;3549;42.162;24.726;2023-05-22T02:19:36;47705.53;;;-141.97;82.10
7018;BME280;3549;42.162;24.726;2023-05-22T02:22:02;47747.81;;;-141.97;82.27
7018;BME280;3549;42.162;24.726;2023-05-22T02:24:29;47722.81;;;-141.97;82.96
7018;BME280;3549;42.162;24.726;2023-05-22T02:26:54;47726.66;;;-141.97;83.26
7018;BME280;3549;42.162;24.726;2023-05-22T02:29:20;47670.91;;;-141.97;82.61
7018;BME280;3549;42.162;24.726;2023-05-22T02:31:45;47630.56;;;-141.97;82.33
7018;BME280;3549;42.162;24.726;2023-05-22T02:34:11;47644.00;;;-141.97;82.52
7018;BME280;3549;42.162;24.726;2023-05-22T02:36:36;47772.78;;;-141.97;82.55
7018;BME280;3549;42.162;24.726;2023-05-22T02:39:02;47842.00;;;-141.97;82.97
7018;BME280;3549;42.162;24.726;2023-05-22T02:41:27;47667.06;;;-141.97;82.29
7018;BME280;3549;42.162;24.726;2023-05-22T02:43:52;47730.50;;;-141.97;81.63
7018;BME280;3549;42.162;24.726;2023-05-22T02:46:18;47644.00;;;-141.97;82.04
7018;BME280;3549;42.162;24.726;2023-05-22T02:48:43;47697.84;;;-141.97;82.41
7018;BME280;3549;42.162;24.726;2023-05-22T02:51:09;47707.44;;;-141.97;81.88
7018;BME280;3549;42.162;24.726;2023-05-22T02:53:35;47718.97;;;-141.97;82.26
7018;BME280;3549;42.162;24.726;2023-05-22T02:56:08;47711.28;;;-141.97;82.26
7018;BME280;3549;42.162;24.726;2023-05-22T02:58:34;47718.97;;;-141.97;82.89
7018;BME280;3549;42.162;24.726;2023-05-22T03:01:00;47567.13;;;-141.97;82.53
7018;BME280;3549;42.162;24.726;2023-05-22T03:03:27;47713.22;;;-141.97;83.02
7018;BME280;3549;42.162;24.726;2023-05-22T03:05:53;47755.50;;;-141.97;82.80
7018;BME280;3549;42.162;24.726;2023-05-22T03:08:23;47688.22;;;-141.97;82.58
7018;BME280;3549;42.162;24.726;2023-05-22T03:10:48;47732.44;;;-141.97;83.26
7018;BME280;3549;42.162;24.726;2023-05-22T03:13:14;47697.84;;;-141.97;82.93
7018;BME280;3549;42.162;24.726;2023-05-22T03:15:39;47680.53;;;-141.97;82.61
7018;BME280;3549;42.162;24.726;2023-05-22T03:18:04;47686.31;;;-141.97;82.11
7018;BME280;3549;42.162;24.726;2023-05-22T03:20:30;47692.06;;;-141.97;82.20
7018;BME280;3549;42.162;24.726;2023-05-22T03:22:56;47711.28;;;-141.97;82.02
7018;BME280;3549;42.162;24.726;2023-05-22T03:25:22;47709.38;;;-141.97;81.95
7018;BME280;3549;42.162;24.726;2023-05-22T03:27:47;47669.00;;;-141.97;82.09
7018;BME280;3549;42.162;24.726;2023-05-22T03:30:13;47711.28;;;-141.97;82.17
7018;BME280;3549;42.162;24.726;2023-05-22T03:32:39;47663.22;;;-141.97;82.29
7018;BME280;3549;42.162;24.726;2023-05-22T03:35:05;47699.75;;;-141.97;82.44
7018;BME280;3549;42.162;24.726;2023-05-22T03:37:31;47747.81;;;-141.97;82.12
7018;BME280;3549;42.162;24.726;2023-05-22T03:39:56;47857.38;;;-141.97;81.84
7018;BME280;3549;42.162;24.726;2023-05-22T03:42:21;47663.22;;;-141.97;81.31
7018;BME280;3549;42.162;24.726;2023-05-22T03:44:47;47803.56;;;-141.97;83.45
7018;BME280;3549;42.162;24.726;2023-05-22T03:47:14;47694.00;;;-141.97;83.37
7018;BME280;3549;42.162;24.726;2023-05-22T03:49:39;47842.00;;;-141.97;82.81
7018;BME280;3549;42.162;24.726;2023-05-22T03:52:08;47682.47;;;-141.97;82.37
7018;BME280;3549;42.162;24.726;2023-05-22T03:54:33;47603.66;;;-141.97;82.09
7018;BME280;3549;42.162;24.726;2023-05-22T03:56:59;47649.78;;;-141.97;81.47
7018;BME280;3549;42.162;24.726;2023-05-22T03:59:24;47684.38;;;-141.97;81.63
7018;BME280;3549;42.162;24.726;2023-05-22T04:01:50;47638.25;;;-141.97;81.70
7018;BME280;3549;42.162;24.726;2023-05-22T04:04:15;47686.31;;;-141.97;81.75
7018;BME280;3549;42.162;24.726;2023-05-22T04:06:41;47713.22;;;-141.97;81.76
7018;BME280;3549;42.162;24.726;2023-05-22T04:09:10;47682.47;;;-141.97;81.26
7018;BME280;3549;42.162;24.726;2023-05-22T04:11:39;47868.91;;;-141.97;79.61
7018;BME280;3549;42.162;24.726;2023-05-22T04:14:07;47692.06;;;-141.97;79.45
7018;BME280;3549;42.162;24.726;2023-05-22T04:16:32;47713.22;;;-141.97;80.24
7018;BME280;3549;42.162;24.726;2023-05-22T04:18:58;47695.91;;;-141.97;81.60
7018;BME280;3549;42.162;24.726;2023-05-22T04:21:27;47692.06;;;-141.97;82.34
7018;BME280;3549;42.162;24.726;2023-05-22T04:23:52;47620.94;;;-141.97;83.71
7018;BME280;3549;42.162;24.726;2023-05-22T04:26:18;47665.16;;;-141.97;83.91
7018;BME280;3549;42.162;24.726;2023-05-22T04:28:45;47718.97;;;-141.97;84.23
7018;BME280;3549;42.162;24.726;2023-05-22T04:31:14;47657.47;;;-141.97;84.25
7018;BME280;3549;42.162;24.726;2023-05-22T04:33:39;47688.22;;;-141.97;83.52
7018;BME280;3549;42.162;24.726;2023-05-22T04:36:05;47722.81;;;-141.97;83.91
7018;BME280;3549;42.162;24.726;2023-05-22T04:38:32;47678.63;;;-141.97;83.16
7018;BME280;3549;42.162;24.726;2023-05-22T04:41:04;47715.13;;;-141.97;84.35
7018;BME280;3549;42.162;24.726;2023-05-22T04:43:29;47670.91;;;-141.97;85.42
7018;BME280;3549;42.162;24.726;2023-05-22T04:45:56;47651.69;;;-141.97;85.07
7018;BME280;3549;42.162;24.726;2023-05-22T04:48:22;47690.16;;;-141.97;84.53
7018;BME280;3549;42.162;24.726;2023-05-22T04:50:51;47732.44;;;-141.97;84.25
7018;BME280;3549;42.162;24.726;2023-05-22T04:53:18;47842.00;;;-141.97;84.57
7018;BME280;3549;42.162;24.726;2023-05-22T04:55:43;47592.13;;;-141.97;84.75
7018;BME280;3549;42.162;24.726;2023-05-22T04:58:10;47503.69;;;-141.97;85.14
7018;BME280;3549;42.162;24.726;2023-05-22T05:00:35;47622.88;;;-141.97;85.15
7018;BME280;3549;42.162;24.726;2023-05-22T05:03:01;47859.28;;;-141.97;84.02
7018;BME280;3549;42.162;24.726;2023-05-22T05:05:26;47649.78;;;-141.97;81.14
7018;BME280;3549;42.162;24.726;2023-05-22T05:07:51;47699.75;;;-141.97;79.61
7018;BME280;3549;42.162;24.726;2023-05-22T05:10:18;47740.13;;;-141.97;79.92
7018;BME280;3549;42.162;24.726;2023-05-22T05:12:43;47601.72;;;-141.97;78.91
7018;BME280;3549;42.162;24.726;2023-05-22T05:15:09;47718.97;;;-141.97;77.44
7018;BME280;3549;42.162;24.726;2023-05-22T05:17:34;47676.69;;;-141.97;77.70
7018;BME280;3549;42.162;24.726;2023-05-22T05:20:00;47736.28;;;-141.97;78.02
7018;BME280;3549;42.162;24.726;2023-05-22T05:22:25;47403.75;;;-141.97;79.29
7018;BME280;3549;42.162;24.726;2023-05-22T05:24:51;47722.81;;;-141.97;80.04
7018;BME280;3549;42.162;24.726;2023-05-22T05:27:16;47663.22;;;-141.97;80.74
7018;BME280;3549;42.162;24.726;2023-05-22T05:29:42;47607.50;;;-141.97;80.51
7018;BME280;3549;42.162;24.726;2023-05-22T05:32:07;47722.81;;;-141.97;79.56
7018;BME280;3549;42.162;24.726;2023-05-22T05:34:34;47572.91;;;-141.97;78.95
7018;BME280;3549;42.162;24.726;2023-05-22T05:37:00;47597.88;;;-141.97;79.71
7018;BME280;3549;42.162;24.726;2023-05-22T05:39:26;47718.97;;;-141.97;79.49
7018;BME280;3549;42.162;24.726;2023-05-22T05:41:52;47501.78;;;-141.97;80.07
7018;BME280;3549;42.162;24.726;2023-05-22T05:44:17;47611.34;;;-141.97;80.15
7018;BME280;3549;42.162;24.726;2023-05-22T05:46:43;47594.03;;;-141.97;79.62
7018;BME280;3549;42.162;24.726;2023-05-22T05:49:09;47580.59;;;-141.97;79.21
7018;BME280;3549;42.162;24.726;2023-05-22T05:51:38;47922.72;;;-141.97;77.74
7018;BME280;3549;42.162;24.726;2023-05-22T05:54:04;47588.28;;;-141.97;76.25
7018;BME280;3549;42.162;24.726;2023-05-22T05:56:29;47672.84;;;-141.97;74.92
7018;BME280;3549;42.162;24.726;2023-05-22T05:58:55;47711.28;;;-141.97;76.40
7018;BME280;3549;42.162;24.726;2023-05-22T06:01:21;47740.13;;;-141.97;74.69
7018;BME280;3549;42.162;24.726;2023-05-22T06:03:49;47840.06;;;-141.97;75.04
7018;BME280;3549;42.162;24.726;2023-05-22T06:06:14;47565.22;;;-141.97;74.58
7018;BME280;3549;42.162;24.726;2023-05-22T06:08:41;47665.16;;;-141.97;74.20
7018;BME280;3549;42.162;24.726;2023-05-22T06:11:07;47605.56;;;-141.97;72.74
7018;BME280;3549;42.162;24.726;2023-05-22T06:13:32;47638.25;;;-141.97;71.34
7018;BME280;3549;42.162;24.726;2023-05-22T06:15:58;47494.09;;;-141.97;69.88
7018;BME280;3549;42.162;24.726;2023-05-22T06:18:23;47707.44;;;-141.97;70.23
7018;BME280;3549;42.162;24.726;2023-05-22T06:20:50;47849.69;;;-141.97;69.38
7018;BME280;3549;42.162;24.726;2023-05-22T06:23:15;47722.81;;;-141.97;68.59
7018;BME280;3549;42.162;24.726;2023-05-22T06:25:41;47822.78;;;-141.97;66.89
7018;BME280;3549;42.162;24.726;2023-05-22T06:28:06;47818.94;;;-141.97;65.45
7018;BME280;3549;42.162;24.726;2023-05-22T06:30:32;47665.16;;;-141.97;64.31
7018;BME280;3549;42.162;24.726;2023-05-22T06:32:57;47684.38;;;-141.97;62.77
7018;BME280;3549;42.162;24.726;2023-05-22T06:35:22;47624.78;;;-141.97;63.67
7018;BME280;3549;42.162;24.726;2023-05-22T06:37:48;47830.47;;;-141.97;62.12
7018;BME280;3549;42.162;24.726;2023-05-22T06:40:13;47790.09;;;-141.97;59.37
7018;BME280;3549;42.162;24.726;2023-05-22T06:42:39;47661.31;;;-141.97;60.38
7018;BME280;3549;42.162;24.726;2023-05-22T06:45:05;47830.47;;;-141.97;59.92
7018;BME280;3549;42.162;24.726;2023-05-22T06:47:31;47640.16;;;-141.97;59.92
7018;BME280;3549;42.162;24.726;2023-05-22T06:49:56;47657.47;;;-141.97;58.66
7018;BME280;3549;42.162;24.726;2023-05-22T06:52:22;47622.88;;;-141.97;57.40
7018;BME280;3549;42.162;24.726;2023-05-22T06:54:47;47620.94;;;-141.97;56.77
7018;BME280;3549;42.162;24.726;2023-05-22T06:57:13;47588.28;;;-141.97;58.48
7018;BME280;3549;42.162;24.726;2023-05-22T06:59:38;47515.22;;;-141.97;58.10
7018;BME280;3549;42.162;24.726;2023-05-22T07:02:04;47626.72;;;-141.97;57.21
7018;BME280;3549;42.162;24.726;2023-05-22T07:04:30;47492.16;;;-141.97;55.68
7018;BME280;3549;42.162;24.726;2023-05-22T07:06:55;47868.91;;;-141.97;57.20
7018;BME280;3549;42.162;24.726;2023-05-22T07:09:21;47576.75;;;-141.97;57.08
7018;BME280;3549;42.162;24.726;2023-05-22T07:11:46;47747.81;;;-141.97;55.44
7018;BME280;3549;42.162;24.726;2023-05-22T07:14:12;47642.09;;;-141.97;54.77
7018;BME280;3549;42.162;24.726;2023-05-22T07:16:38;47599.81;;;-141.97;53.56
7018;BME280;3549;42.162;24.726;2023-05-22T07:19:04;47565.22;;;-141.97;54.47
7018;BME280;3549;42.162;24.726;2023-05-22T07:21:30;47524.84;;;-141.97;51.70
7018;BME280;3549;42.162;24.726;2023-05-22T07:23:56;47634.41;;;-141.97;52.46
7018;BME280;3549;42.162;24.726;2023-05-22T07:26:22;47795.88;;;-141.97;52.79
7018;BME280;3549;42.162;24.726;2023-05-22T07:28:48;47649.78;;;-141.97;52.85
7018;BME280;3549;42.162;24.726;2023-05-22T07:31:13;47515.22;;;-141.97;52.59
7018;BME280;3549;42.162;24.726;2023-05-22T07:33:38;47471.03;;;-141.97;51.46
7018;BME280;3549;42.162;24.726;2023-05-22T07:36:04;47538.28;;;-141.97;49.87
7018;BME280;3549;42.162;24.726;2023-05-22T07:38:30;47434.50;;;-141.97;49.16
7018;BME280;3549;42.162;24.726;2023-05-22T07:40:55;47499.84;;;-141.97;49.43
7018;BME280;3549;42.162;24.726;2023-05-22T07:43:21;47559.44;;;-141.97;48.80
7018;BME280;3549;42.162;24.726;2023-05-22T07:45:46;47501.78;;;-141.97;47.88
7018;BME280;3549;42.162;24.726;2023-05-22T07:48:12;47557.53;;;-141.97;45.10
7018;BME280;3549;42.162;24.726;2023-05-22T07:50:37;47432.59;;;-141.97;45.28
7018;BME280;3549;42.162;24.726;2023-05-22T07:53:03;47499.84;;;-141.97;44.65
7018;BME280;3549;42.162;24.726;2023-05-22T07:55:29;47496.00;;;-141.97;43.93
7018;BME280;3549;42.162;24.726;2023-05-22T07:57:55;47747.81;;;-141.97;42.78
7018;BME280;3549;42.162;24.726;2023-05-22T08:00:21;47321.13;;;-141.97;45.03
7018;BME280;3549;42.162;24.726;2023-05-22T08:02:46;47795.88;;;-141.97;46.09
7018;BME280;3549;42.162;24.726;2023-05-22T08:05:12;47505.63;;;-141.97;45.56
7018;BME280;3549;42.162;24.726;2023-05-22T08:07:37;47499.84;;;-141.97;44.69
7018;BME280;3549;42.162;24.726;2023-05-22T08:10:13;47609.41;;;-141.97;44.38
7018;BME280;3549;42.162;24.726;2023-05-22T08:12:38;47599.81;;;-141.97;43.28
7018;BME280;3549;42.162;24.726;2023-05-22T08:15:04;47455.66;;;-141.97;42.82
7018;BME280;3549;42.162;24.726;2023-05-22T08:17:30;47449.88;;;-141.97;43.77
7018;BME280;3549;42.162;24.726;2023-05-22T08:19:55;47549.84;;;-141.97;44.17
7018;BME280;3549;42.162;24.726;2023-05-22T08:22:21;47532.53;;;-141.97;43.19
7018;BME280;3549;42.162;24.726;2023-05-22T08:24:46;47732.44;;;-141.97;42.38
7018;BME280;3549;42.162;24.726;2023-05-22T08:27:11;47807.41;;;-141.97;41.91
7018;BME280;3549;42.162;24.726;2023-05-22T08:29:37;47751.66;;;-141.97;43.82
7018;BME280;3549;42.162;24.726;2023-05-22T08:32:02;47546.00;;;-141.97;41.63
7018;BME280;3549;42.162;24.726;2023-05-22T08:34:28;47509.47;;;-141.97;40.49
7018;BME280;3549;42.162;24.726;2023-05-22T08:36:53;47734.34;;;-141.97;39.92
7018;BME280;3549;42.162;24.726;2023-05-22T08:39:19;47576.75;;;-141.97;39.34
7018;BME280;3549;42.162;24.726;2023-05-22T08:41:44;47524.84;;;-141.97;38.46
7018;BME280;3549;42.162;24.726;2023-05-22T08:44:11;47482.56;;;-141.97;37.93
7018;BME280;3549;42.162;24.726;2023-05-22T08:46:41;47472.94;;;-141.97;37.86
7018;BME280;3549;42.162;24.726;2023-05-22T08:49:08;47620.94;;;-141.97;37.92
7018;BME280;3549;42.162;24.726;2023-05-22T08:51:38;47488.31;;;-141.97;38.35
7018;BME280;3549;42.162;24.726;2023-05-22T08:54:07;47530.59;;;-141.97;37.13
7018;BME280;3549;42.162;24.726;2023-05-22T08:56:34;47572.91;;;-141.97;38.25
7018;BME280;3549;42.162;24.726;2023-05-22T08:59:00;47657.47;;;-141.97;38.43
7018;BME280;3549;42.162;24.726;2023-05-22T09:01:30;47745.88;;;-141.97;38.04
7018;BME280;3549;42.162;24.726;2023-05-22T09:04:02;47546.00;;;-141.97;38.41
7018;BME280;3549;42.162;24.726;2023-05-22T09:06:30;47555.59;;;-141.97;37.95
7018;BME280;3549;42.162;24.726;2023-05-22T09:08:57;47449.88;;;-141.97;38.04
7018;BME280;3549;42.162;24.726;2023-05-22T09:11:23;47734.34;;;-141.97;37.89
7018;BME280;3549;42.162;24.726;2023-05-22T09:13:49;47690.16;;;-141.97;38.99
7018;BME280;3549;42.162;24.726;2023-05-22T09:16:16;47588.28;;;-141.97;38.97
7018;BME280;3549;42.162;24.726;2023-05-22T09:18:42;47421.06;;;-141.97;38.67
7018;BME280;3549;42.162;24.726;2023-05-22T09:21:10;47524.84;;;-141.97;38.62
7018;BME280;3549;42.162;24.726;2023-05-22T09:23:36;47492.16;;;-141.97;38.72
7018;BME280;3549;42.162;24.726;2023-05-22T09:26:02;47544.06;;;-141.97;38.77
7018;BME280;3549;42.162;24.726;2023-05-22T09:28:32;47521.00;;;-141.97;39.04
7018;BME280;3549;42.162;24.726;2023-05-22T09:30:59;47572.91;;;-141.97;38.06
7018;BME280;3549;42.162;24.726;2023-05-22T09:33:26;47619.03;;;-141.97;39.13
7018;BME280;3549;42.162;24.726;2023-05-22T09:35:52;47326.88;;;-141.97;38.24
7018;BME280;3549;42.162;24.726;2023-05-22T09:38:20;47530.59;;;-141.97;37.58
7018;BME280;3549;42.162;24.726;2023-05-22T09:40:52;47807.41;;;-141.97;37.54
7018;BME280;3549;42.162;24.726;2023-05-22T09:43:17;47503.69;;;-141.97;37.22
7018;BME280;3549;42.162;24.726;2023-05-22T09:45:43;47534.44;;;-141.97;36.95
7018;BME280;3549;42.162;24.726;2023-05-22T09:48:08;47511.38;;;-141.97;37.14
7018;BME280;3549;42.162;24.726;2023-05-22T09:50:37;47467.19;;;-141.97;36.43
7018;BME280;3549;42.162;24.726;2023-05-22T09:53:04;47348.03;;;-141.97;36.53
7018;BME280;3549;42.162;24.726;2023-05-22T09:55:30;47547.91;;;-141.97;37.03
7018;BME280;3549;42.162;24.726;2023-05-22T09:58:02;47615.19;;;-141.97;37.27
7018;BME280;3549;42.162;24.726;2023-05-22T10:00:29;47524.84;;;-141.97;37.54
7018;BME280;3549;42.162;24.726;2023-05-22T10:03:05;47565.22;;;-141.97;36.99
7018;BME280;3549;42.162;24.726;2023-05-22T10:05:34;47336.50;;;-141.97;37.12
7018;BME280;3549;42.162;24.726;2023-05-22T10:08:24;47726.66;;;-141.97;36.88
7018;BME280;3549;42.162;24.726;2023-05-22T10:10:51;47799.72;;;-141.97;35.85
7018;BME280;3549;42.162;24.726;2023-05-22T10:13:18;47415.28;;;-141.97;35.76
7018;BME280;3549;42.162;24.726;2023-05-22T10:15:46;47544.06;;;-141.97;34.53
7018;BME280;3549;42.162;24.726;2023-05-22T10:18:14;47411.44;;;-141.97;35.34
7018;BME280;3549;42.162;24.726;2023-05-22T10:20:44;47447.97;;;-141.97;36.60
7018;BME280;3549;42.162;24.726;2023-05-22T10:23:11;47398.00;;;-141.97;36.90
7018;BME280;3549;42.162;24.726;2023-05-22T10:25:38;47572.91;;;-141.97;36.23
7018;BME280;3549;42.162;24.726;2023-05-22T10:28:04;47751.66;;;-141.97;37.38
7018;BME280;3549;42.162;24.726;2023-05-22T10:33:28;47553.69;;;-141.97;36.24
7018;BME280;3549;42.162;24.726;2023-05-22T10:41:24;47553.69;;;-141.97;37.11
7018;BME280;3549;42.162;24.726;2023-05-22T10:43:50;47590.19;;;-141.97;37.07
7018;BME280;3549;42.162;24.726;2023-05-22T10:46:17;47392.22;;;-141.97;36.67
7018;BME280;3549;42.162;24.726;2023-05-22T10:48:48;47542.16;;;-141.97;36.41
7018;BME280;3549;42.162;24.726;2023-05-22T10:51:17;47461.41;;;-141.97;35.86
7018;BME280;3549;42.162;24.726;2023-05-22T10:53:43;47549.84;;;-141.97;35.94
7018;BME280;3549;42.162;24.726;2023-05-22T10:56:13;47559.44;;;-141.97;35.45
7018;BME280;3549;42.162;24.726;2023-05-22T10:58:40;47734.34;;;-141.97;35.13
7018;BME280;3549;42.162;24.726;2023-05-22T11:01:19;47517.16;;;-141.97;35.46
7018;BME280;3549;42.162;24.726;2023-05-22T11:03:58;47534.44;;;-141.97;35.46
7018;BME280;3549;42.162;24.726;2023-05-22T11:09:44;47567.13;;;-141.97;35.79
7018;BME280;3549;42.162;24.726;2023-05-22T11:12:28;47767.03;;;-141.97;34.91
7018;BME280;3549;42.162;24.726;2023-05-22T11:15:10;47480.63;;;-141.97;33.92
7018;BME280;3549;42.162;24.726;2023-05-22T11:22:40;47467.19;;;-141.97;32.74
7018;BME280;3549;42.162;24.726;2023-05-22T11:25:15;47742.03;;;-141.97;32.16
7018;BME280;3549;42.162;24.726;2023-05-22T11:27:42;47457.56;;;-141.97;32.68
7018;BME280;3549;42.162;24.726;2023-05-22T11:30:08;47449.88;;;-141.97;32.84
7018;BME280;3549;42.162;24.726;2023-05-22T11:32:35;47373.00;;;-141.97;33.17
7018;BME280;3549;42.162;24.726;2023-05-22T11:35:01;47517.16;;;-141.97;33.32
7018;BME280;3549;42.162;24.726;2023-05-22T11:37:32;47549.84;;;-141.97;34.33
7018;BME280;3549;42.162;24.726;2023-05-22T11:40:03;47526.75;;;-141.97;34.45
7018;BME280;3549;42.162;24.726;2023-05-22T11:42:28;47553.69;;;-141.97;38.93
7018;BME280;3549;42.162;24.726;2023-05-22T11:44:54;47499.84;;;-141.97;40.38
7018;BME280;3549;42.162;24.726;2023-05-22T11:47:20;47588.28;;;-141.97;44.64
7018;BME280;3549;42.162;24.726;2023-05-22T11:49:45;47515.22;;;-141.97;49.01
7018;BME280;3549;42.162;24.726;2023-05-22T11:52:11;47544.06;;;-141.97;53.55
7018;BME280;3549;42.162;24.726;2023-05-22T11:54:36;47759.34;;;-141.97;54.91
7018;BME280;3549;42.162;24.726;2023-05-22T11:57:03;47503.69;;;-141.97;56.82
7018;BME280;3549;42.162;24.726;2023-05-22T11:59:29;47584.44;;;-141.97;57.18
7018;BME280;3549;42.162;24.726;2023-05-22T12:01:54;47584.44;;;-141.97;57.40
7018;BME280;3549;42.162;24.726;2023-05-22T12:04:21;47486.41;;;-141.97;58.27
7018;BME280;3549;42.162;24.726;2023-05-22T12:06:47;47453.72;;;-141.97;60.73
7018;BME280;3549;42.162;24.726;2023-05-22T12:09:12;47620.94;;;-141.97;61.86
7018;BME280;3549;42.162;24.726;2023-05-22T12:11:38;47661.31;;;-141.97;66.25
7018;BME280;3549;42.162;24.726;2023-05-22T12:14:03;47557.53;;;-141.97;69.23
7018;BME280;3549;42.162;24.726;2023-05-22T12:16:34;47661.31;;;-141.97;71.85
7018;BME280;3549;42.162;24.726;2023-05-22T12:19:04;47669.00;;;-141.97;72.32
7018;BME280;3549;42.162;24.726;2023-05-22T12:21:30;47661.31;;;-141.97;72.99
7018;BME280;3549;42.162;24.726;2023-05-22T12:23:56;47590.19;;;-141.97;72.58
7018;BME280;3549;42.162;24.726;2023-05-22T12:26:22;47592.13;;;-141.97;73.95
7018;BME280;3549;42.162;24.726;2023-05-22T12:28:51;47622.88;;;-141.97;72.73
7018;BME280;3549;42.162;24.726;2023-05-22T12:31:20;47670.91;;;-141.97;72.79
7018;BME280;3549;42.162;24.726;2023-05-22T12:33:53;47703.59;;;-141.97;72.24
7018;BME280;3549;42.162;24.726;2023-05-22T12:36:19;47688.22;;;-141.97;72.37
7018;BME280;3549;42.162;24.726;2023-05-22T12:38:44;47809.31;;;-141.97;70.84
7018;BME280;3549;42.162;24.726;2023-05-22T12:41:10;47676.69;;;-141.97;72.70
7018;BME280;3549;42.162;24.726;2023-05-22T12:43:35;47697.84;;;-141.97;73.17
7018;BME280;3549;42.162;24.726;2023-05-22T12:46:01;47853.53;;;-141.97;70.13
7018;BME280;3549;42.162;24.726;2023-05-22T12:48:26;47665.16;;;-141.97;68.26
7018;BME280;3549;42.162;24.726;2023-05-22T12:50:52;47515.22;;;-141.97;66.36
7018;BME280;3549;42.162;24.726;2023-05-22T12:53:18;47522.91;;;-141.97;63.36
7018;BME280;3549;42.162;24.726;2023-05-22T12:55:44;47663.22;;;-141.97;64.23
7018;BME280;3549;42.162;24.726;2023-05-22T12:58:09;47845.84;;;-141.97;64.81
7018;BME280;3549;42.162;24.726;2023-05-22T13:00:35;47834.31;;;-141.97;62.89
7018;BME280;3549;42.162;24.726;2023-05-22T13:03:01;47599.81;;;-141.97;56.95
7018;BME280;3549;42.162;24.726;2023-05-22T13:05:27;47611.34;;;-141.97;52.11
7018;BME280;3549;42.162;24.726;2023-05-22T13:07:52;47536.38;;;-141.97;44.97
7018;BME280;3549;42.162;24.726;2023-05-22T13:10:18;47534.44;;;-141.97;43.41
7018;BME280;3549;42.162;24.726;2023-05-22T13:12:44;47386.47;;;-141.97;38.99
7018;BME280;3549;42.162;24.726;2023-05-22T13:15:12;47680.53;;;-141.97;36.82
7018;BME280;3549;42.162;24.726;2023-05-22T13:17:39;47738.19;;;-141.97;37.57
7018;BME280;3549;42.162;24.726;2023-05-22T13:20:05;47442.19;;;-141.97;35.70
7018;BME280;3549;42.162;24.726;2023-05-22T13:22:31;47323.03;;;-141.97;37.60